Time;durP1;ratioP1;P1;durP2;ratioP2;P2;SDS_P1;SDS_P2;PMS_P1;PMS_P2;Temp;Humidity;BMP_temperature;BMP_pressure;BME280_temperature;BME280_humidity;BME280_pressure;Samples;Min_cycle;Max_cycle;Signal;HPM_P1;HPM_P2
2022/02/09 00:10:29;;;;;;;4.13;3.70;;;10.20;68.50;;;;;;5074763;28;20557;-78
2022/02/09 00:13:22;;;;;;;6.68;3.90;;;10.20;69.20;;;;;;5090534;28;20429;-78
2022/02/09 00:15:51;;;;;;;4.32;3.92;;;10.20;69.20;;;;;;5080901;28;20434;-78
2022/02/09 00:18:34;;;;;;;4.25;3.47;;;10.20;69.80;;;;;;5085742;28;20388;-79
2022/02/09 00:24:18;;;;;;;5.70;3.90;;;10.20;70.10;;;;;;5084799;28;20537;-76
2022/02/09 00:27:02;;;;;;;3.85;3.30;;;10.20;69.60;;;;;;5078202;28;20395;-77
2022/02/09 00:38:00;;;;;;;3.65;2.90;;;10.20;65.90;;;;;;5091910;28;20448;-78
2022/02/09 00:43:29;;;;;;;3.97;2.63;;;10.20;65.20;;;;;;5075045;28;20454;-78
2022/02/09 01:40:40;;;;;;;7.03;6.00;;;10.00;68.50;;;;;;5077783;28;20383;-79
2022/02/09 01:43:31;;;;;;;6.60;5.90;;;10.00;68.80;;;;;;5083073;28;20388;-79
2022/02/09 01:56:55;;;;;;;8.02;6.10;;;10.20;67.60;;;;;;5092337;28;20455;-78
2022/02/09 01:59:21;;;;;;;9.20;6.70;;;10.10;68.20;;;;;;5091885;28;20374;-78
2022/02/09 02:01:46;;;;;;;6.83;5.90;;;10.00;70.00;;;;;;5092479;28;20394;-79
2022/02/09 02:04:12;;;;;;;9.50;6.60;;;10.00;70.20;;;;;;5073415;28;20395;-78
2022/02/09 02:06:42;;;;;;;8.00;6.17;;;10.10;70.10;;;;;;5072421;28;20387;-77
2022/02/09 02:09:07;;;;;;;11.40;7.20;;;10.10;69.30;;;;;;5072804;28;20390;-77
2022/02/09 02:11:45;;;;;;;14.00;6.80;;;10.10;69.80;;;;;;5087826;28;20389;-78
2022/02/09 02:16:52;;;;;;;8.82;6.35;;;10.10;70.50;;;;;;5090085;28;20461;-78
2022/02/09 02:27:27;;;;;;;9.68;6.93;;;10.10;69.00;;;;;;5097049;28;20481;-78
2022/02/09 02:38:12;;;;;;;12.02;8.40;;;10.20;69.80;;;;;;5095300;28;20427;-77
2022/02/09 02:44:09;;;;;;;14.23;10.00;;;10.20;71.60;;;;;;5105889;28;20408;-78
2022/02/09 02:57:28;;;;;;;19.20;13.20;;;10.00;73.80;;;;;;5101019;28;20393;-76
2022/02/09 03:13:14;;;;;;;27.40;19.80;;;10.00;73.90;;;;;;5094556;28;20420;-77
2022/02/09 03:15:53;;;;;;;32.90;23.23;;;9.90;76.40;;;;;;5094314;28;20437;-76
2022/02/09 03:24:07;;;;;;;32.22;22.67;;;10.10;75.00;;;;;;5088172;28;20403;-76
2022/02/09 03:55:24;;;;;;;29.58;19.00;;;9.90;79.80;;;;;;5074377;28;20490;-78
2022/02/09 03:57:49;;;;;;;25.27;18.13;;;9.80;81.50;;;;;;5074743;28;20388;-79
2022/02/09 04:00:18;;;;;;;26.60;17.58;;;9.80;83.60;;;;;;5073510;28;20437;-77
2022/02/09 04:02:48;;;;;;;24.75;16.38;;;9.80;85.00;;;;;;5080969;28;20851;-79
2022/02/09 04:05:15;;;;;;;26.70;16.40;;;9.80;86.30;;;;;;5093660;28;20461;-77
2022/02/09 04:07:41;;;;;;;21.70;14.63;;;9.60;87.70;;;;;;5083091;28;20398;-76
2022/02/09 04:10:10;;;;;;;24.10;14.50;;;9.70;86.30;;;;;;5093361;28;20431;-76
2022/02/09 04:17:49;;;;;;;21.75;14.85;;;9.60;91.20;;;;;;5092324;28;20450;-78
2022/02/09 04:38:49;;;;;;;14.82;10.20;;;9.80;76.80;;;;;;5092428;28;20419;-77
2022/02/09 04:41:24;;;;;;;15.95;10.00;;;9.80;74.00;;;;;;5092237;28;20382;-80
2022/02/09 04:51:46;;;;;;;13.30;9.38;;;9.90;70.40;;;;;;5083031;28;20386;-77
2022/02/09 04:54:23;;;;;;;14.50;9.52;;;9.80;70.00;;;;;;5089757;28;20393;-77
2022/02/09 04:56:56;;;;;;;13.63;9.10;;;9.80;69.20;;;;;;5072505;28;20426;-79
2022/02/09 05:26:21;;;;;;;11.50;7.60;;;9.80;65.00;;;;;;5101031;28;20414;-80
2022/02/09 05:28:46;;;;;;;10.70;8.10;;;9.80;64.90;;;;;;5108804;28;20396;-77
2022/02/09 05:31:12;;;;;;;12.53;7.80;;;9.80;64.90;;;;;;5105631;28;20378;-78
2022/02/09 05:33:38;;;;;;;12.90;7.60;;;9.80;64.20;;;;;;5073496;28;20399;-78
2022/02/09 05:36:04;;;;;;;11.37;7.23;;;9.80;64.90;;;;;;5073326;28;20512;-78
2022/02/09 05:38:30;;;;;;;12.63;6.88;;;9.80;63.50;;;;;;5082832;28;20394;-79
2022/02/09 05:40:56;;;;;;;9.60;6.93;;;9.90;62.20;;;;;;5074503;28;20942;-78
2022/02/09 05:43:24;;;;;;;10.60;7.23;;;9.90;60.70;;;;;;5087832;28;20393;-78
2022/02/09 05:46:19;;;;;;;8.93;7.20;;;9.90;60.70;;;;;;5095344;28;20386;-78
2022/02/09 05:51:44;;;;;;;10.07;7.25;;;10.00;58.50;;;;;;5087470;28;20421;-76
2022/02/09 05:56:48;;;;;;;9.70;7.00;;;10.00;57.70;;;;;;5099494;28;20400;-78
2022/02/09 05:59:27;;;;;;;11.38;7.07;;;10.00;57.60;;;;;;5100201;28;20527;-78
2022/02/09 06:01:53;;;;;;;9.52;7.20;;;10.10;56.80;;;;;;5098316;28;20452;-77
2022/02/09 06:04:18;;;;;;;14.15;8.55;;;10.00;58.00;;;;;;5084107;28;20384;-77
2022/02/09 06:06:44;;;;;;;14.95;7.88;;;10.00;58.80;;;;;;5082027;28;20406;-77
2022/02/09 06:09:10;;;;;;;12.00;7.70;;;10.00;57.20;;;;;;5092765;28;20386;-79
2022/02/09 06:19:49;;;;;;;24.15;8.68;;;10.00;56.70;;;;;;5075140;28;20489;-78
2022/02/09 06:22:15;;;;;;;12.05;8.05;;;10.10;56.50;;;;;;5089815;28;20388;-79
2022/02/09 06:24:44;;;;;;;12.83;8.07;;;10.20;55.80;;;;;;5092146;28;20390;-78
2022/02/09 06:27:10;;;;;;;16.50;8.05;;;10.10;56.80;;;;;;5076151;28;20406;-79
2022/02/09 06:29:37;;;;;;;14.25;9.23;;;10.10;56.10;;;;;;5094537;28;20397;-77
2022/02/09 06:32:08;;;;;;;19.15;9.32;;;10.00;57.20;;;;;;5084412;28;20422;-77
2022/02/09 06:34:36;;;;;;;13.30;9.13;;;9.90;57.20;;;;;;5078222;28;20888;-78
2022/02/09 06:37:11;;;;;;;11.30;8.18;;;10.00;57.20;;;;;;5089250;28;20388;-78
2022/02/09 06:39:38;;;;;;;17.08;8.90;;;10.00;57.00;;;;;;5076459;28;20391;-79
2022/02/09 06:42:04;;;;;;;11.43;8.40;;;10.00;57.10;;;;;;5095204;28;20837;-78
2022/02/09 06:44:31;;;;;;;14.77;9.43;;;10.00;56.30;;;;;;5076429;28;20491;-76
2022/02/09 06:46:58;;;;;;;17.63;9.80;;;10.10;55.50;;;;;;5082231;28;20424;-78
2022/02/09 06:49:24;;;;;;;13.48;9.18;;;10.20;55.50;;;;;;5095663;28;20867;-78
2022/02/09 06:51:50;;;;;;;13.90;9.83;;;10.20;55.50;;;;;;5091483;28;20515;-78
2022/02/09 06:54:24;;;;;;;17.73;10.10;;;10.20;55.80;;;;;;5087346;28;20406;-79
2022/02/09 06:59:32;;;;;;;15.30;11.20;;;10.10;57.50;;;;;;5078352;28;20396;-78
2022/02/09 07:02:05;;;;;;;16.75;11.23;;;10.10;57.50;;;;;;5086640;28;20405;-79
2022/02/09 07:04:32;;;;;;;21.70;12.70;;;10.10;58.40;;;;;;5101550;28;20386;-80
2022/02/09 07:06:57;;;;;;;21.87;13.90;;;10.10;61.50;;;;;;5092191;28;20756;-79
2022/02/09 07:09:24;;;;;;;18.00;12.07;;;10.00;64.30;;;;;;5089376;28;20497;-80
2022/02/09 07:11:51;;;;;;;20.08;12.70;;;10.00;64.40;;;;;;5102624;28;20398;-81
2022/02/09 07:14:22;;;;;;;18.67;12.65;;;10.00;64.60;;;;;;5102402;28;20426;-79
2022/02/09 07:16:47;;;;;;;20.33;12.25;;;10.00;65.40;;;;;;5104983;28;20443;-77
2022/02/09 07:19:13;;;;;;;16.83;11.00;;;9.90;65.50;;;;;;5098302;28;20894;-80
2022/02/09 07:21:40;;;;;;;16.47;11.90;;;10.00;65.00;;;;;;5102447;28;20410;-80
2022/02/09 07:24:11;;;;;;;20.60;12.13;;;9.90;67.00;;;;;;5100513;28;20402;-81
2022/02/09 07:29:13;;;;;;;21.10;11.88;;;9.90;67.50;;;;;;5107034;28;20420;-79
2022/02/09 07:31:39;;;;;;;18.48;12.30;;;9.90;68.20;;;;;;5093999;28;20499;-78
2022/02/09 07:34:05;;;;;;;17.67;12.02;;;9.80;69.00;;;;;;5092187;28;20414;-79
2022/02/09 07:36:39;;;;;;;19.95;11.88;;;9.90;67.70;;;;;;5100993;28;20447;-79
2022/02/09 07:39:08;;;;;;;22.45;11.98;;;9.90;67.70;;;;;;5102053;28;20476;-78
2022/02/09 07:41:36;;;;;;;16.10;12.00;;;9.90;68.50;;;;;;5095938;28;20423;-78
2022/02/09 07:44:15;;;;;;;19.35;11.75;;;9.90;68.40;;;;;;5082490;28;20399;-78
2022/02/09 07:47:00;;;;;;;16.67;11.63;;;10.00;67.10;;;;;;5095656;28;20404;-79
2022/02/09 07:52:08;;;;;;;17.58;11.75;;;10.00;65.60;;;;;;5097851;28;20394;-81
2022/02/09 07:54:34;;;;;;;17.40;12.00;;;10.00;65.40;;;;;;5107696;28;20382;-79
2022/02/09 07:57:00;;;;;;;18.77;11.05;;;10.00;64.10;;;;;;5104778;28;20475;-80
2022/02/09 07:59:26;;;;;;;19.80;12.20;;;10.00;63.50;;;;;;5091517;28;20395;-81
2022/02/09 08:01:52;;;;;;;23.58;12.65;;;10.00;64.20;;;;;;5083780;28;20380;-80
2022/02/09 08:04:18;;;;;;;17.52;11.50;;;10.00;64.80;;;;;;5095736;28;20390;-80
2022/02/09 08:06:45;;;;;;;18.30;11.10;;;10.10;62.60;;;;;;5102848;28;20834;-80
2022/02/09 08:09:37;;;;;;;24.35;11.70;;;10.20;61.20;;;;;;5096692;28;20464;-80
2022/02/09 08:28:32;;;;;;;25.07;12.63;;;10.70;55.40;;;;;;5089681;28;20453;-80
2022/02/09 08:31:23;;;;;;;23.90;13.13;;;10.70;55.30;;;;;;5099844;28;20425;-77
2022/02/09 08:33:48;;;;;;;20.83;11.60;;;10.80;57.00;;;;;;5088116;28;20491;-78
2022/02/09 08:36:14;;;;;;;20.73;10.30;;;10.90;52.80;;;;;;5083628;28;20391;-79
2022/02/09 08:38:42;;;;;;;16.00;9.15;;;10.90;52.60;;;;;;5098026;28;20976;-81
2022/02/09 08:41:08;;;;;;;18.13;9.60;;;10.90;51.20;;;;;;5089788;28;20771;-80
2022/02/09 08:43:34;;;;;;;13.00;9.50;;;11.00;50.30;;;;;;5091418;28;20400;-79
2022/02/09 08:45:59;;;;;;;16.43;9.33;;;11.00;51.00;;;;;;5084831;28;20401;-79
2022/02/09 08:48:25;;;;;;;15.57;9.43;;;10.90;50.80;;;;;;5095712;28;20398;-78
2022/02/09 08:50:52;;;;;;;19.70;9.00;;;10.90;50.60;;;;;;5093361;28;20397;-78
2022/02/09 08:53:20;;;;;;;16.48;9.10;;;11.10;48.50;;;;;;5095121;28;20465;-79
2022/02/09 08:55:46;;;;;;;14.40;9.30;;;11.00;50.00;;;;;;5084778;28;20404;-78
2022/02/09 08:58:15;;;;;;;13.07;7.78;;;11.00;49.60;;;;;;5098809;28;20479;-79
2022/02/09 09:00:41;;;;;;;15.07;9.57;;;11.30;47.80;;;;;;5093885;28;20452;-79
2022/02/09 09:03:18;;;;;;;13.10;7.63;;;11.40;47.60;;;;;;5097116;28;20865;-78
2022/02/09 09:05:49;;;;;;;12.43;7.83;;;11.60;45.10;;;;;;5105327;28;20383;-78
2022/02/09 10:01:02;;;;;;;10.27;6.90;;;11.70;43.10;;;;;;5089101;28;20943;-78
2022/02/09 10:03:09;;;;;;;11.20;6.47;;;11.70;43.00;;;;;;5089344;28;20387;-75
2022/02/09 10:33:38;;;;;;;18.60;9.32;;;11.70;45.80;;;;;;5092914;28;20446;-78
2022/02/09 10:36:16;;;;;;;16.00;8.90;;;11.70;45.40;;;;;;5097655;28;20462;-78
2022/02/09 10:38:43;;;;;;;16.55;8.55;;;11.80;44.60;;;;;;5097108;28;20386;-77
2022/02/09 10:41:11;;;;;;;18.30;8.70;;;11.80;44.30;;;;;;5085427;28;20388;-77
2022/02/09 10:43:37;;;;;;;13.65;8.30;;;11.80;44.60;;;;;;5075276;28;20380;-78
2022/02/09 10:46:20;;;;;;;16.20;8.90;;;11.70;45.20;;;;;;5076798;28;20380;-78
2022/02/09 10:48:59;;;;;;;20.77;9.43;;;11.80;44.70;;;;;;5084157;28;20387;-78
2022/02/09 10:54:09;;;;;;;15.85;9.98;;;11.80;44.60;;;;;;5087990;28;20402;-77
2022/02/09 10:56:39;;;;;;;19.55;9.88;;;11.90;44.00;;;;;;5096454;28;20394;-76
2022/02/09 10:59:08;;;;;;;16.38;10.48;;;11.80;44.30;;;;;;5094583;28;20938;-78
2022/02/09 11:01:35;;;;;;;16.83;9.70;;;11.80;44.20;;;;;;5095759;28;20385;-78
2022/02/09 11:04:00;;;;;;;16.20;10.10;;;11.70;45.30;;;;;;5089188;28;20805;-78
2022/02/09 11:06:32;;;;;;;17.60;11.17;;;11.70;45.10;;;;;;5096467;28;20382;-78
2022/02/09 11:08:58;;;;;;;17.35;9.95;;;11.70;44.60;;;;;;5095129;28;20404;-78
2022/02/09 11:11:24;;;;;;;16.30;10.10;;;11.70;45.70;;;;;;5097164;28;20533;-77
2022/02/09 11:13:50;;;;;;;16.80;9.37;;;11.90;45.30;;;;;;5095935;28;20398;-77
2022/02/09 11:16:17;;;;;;;14.48;9.15;;;12.10;43.10;;;;;;5095439;28;20756;-78
2022/02/09 11:18:46;;;;;;;17.47;10.03;;;12.20;42.90;;;;;;5096517;28;20941;-78
2022/02/09 11:21:14;;;;;;;25.05;11.18;;;12.30;42.80;;;;;;5095742;28;20382;-77
2022/02/09 11:23:45;;;;;;;20.73;11.38;;;12.40;41.90;;;;;;5095172;28;20386;-78
2022/02/09 11:26:56;;;;;;;21.45;10.43;;;12.40;41.00;;;;;;5118002;28;21390;-79
2022/02/09 11:32:43;;;;;;;19.80;10.23;;;12.70;40.90;;;;;;5109952;28;20416;-77
2022/02/09 11:37:42;;;;;;;19.55;9.60;;;12.90;39.30;;;;;;5095329;28;20524;-78
2022/02/09 11:40:30;;;;;;;22.63;10.35;;;13.00;38.60;;;;;;5093890;28;20431;-76
2022/02/09 11:43:04;;;;;;;16.25;9.68;;;13.10;38.90;;;;;;5075784;28;20384;-77
2022/02/09 12:10:53;;;;;;;15.67;9.43;;;12.90;37.50;;;;;;5101035;28;20404;-76
2022/02/09 12:16:47;;;;;;;14.38;9.05;;;13.00;35.10;;;;;;5083722;28;20415;-78
2022/02/09 12:19:25;;;;;;;17.58;7.40;;;13.00;35.30;;;;;;5081242;28;20744;-76
2022/02/09 12:24:33;;;;;;;13.60;7.63;;;13.10;36.00;;;;;;5093672;28;20388;-78
2022/02/09 12:27:06;;;;;;;13.90;6.68;;;13.10;34.10;;;;;;5093123;28;20381;-78
2022/02/09 12:29:37;;;;;;;11.70;6.70;;;12.90;34.60;;;;;;5089959;28;20461;-77
2022/02/09 12:32:24;;;;;;;13.15;7.20;;;12.70;35.10;;;;;;5091181;28;20406;-75
2022/02/09 12:35:13;;;;;;;9.80;5.38;;;12.70;35.90;;;;;;5089122;28;20410;-75
2022/02/09 12:37:41;;;;;;;9.35;6.30;;;12.80;34.40;;;;;;5094932;28;20391;-76
2022/02/09 12:40:08;;;;;;;14.30;6.25;;;12.80;34.80;;;;;;5076573;28;20791;-76
2022/02/09 12:42:37;;;;;;;9.57;5.90;;;12.90;33.70;;;;;;5088398;28;20422;-76
2022/02/09 12:45:31;;;;;;;13.90;5.30;;;13.10;32.70;;;;;;5077242;28;20734;-75
2022/02/09 12:48:03;;;;;;;9.30;4.78;;;13.20;32.00;;;;;;5083897;28;20476;-75
2022/02/09 12:50:41;;;;;;;9.60;4.90;;;13.10;31.90;;;;;;5088744;28;20418;-76
2022/02/09 12:53:08;;;;;;;9.88;4.60;;;13.00;32.50;;;;;;5077285;28;20391;-76
2022/02/09 12:55:36;;;;;;;8.88;4.40;;;12.80;32.40;;;;;;5091220;28;21061;-76
2022/02/09 12:58:11;;;;;;;10.10;5.10;;;12.70;33.30;;;;;;5079137;28;20392;-76
2022/02/09 13:00:47;;;;;;;9.52;4.32;;;12.60;33.80;;;;;;5079702;28;20386;-76
2022/02/09 13:03:15;;;;;;;12.23;4.60;;;12.60;33.30;;;;;;5078850;28;20382;-77
2022/02/09 13:05:48;;;;;;;10.95;5.25;;;12.60;33.90;;;;;;5082442;28;20390;-76
2022/02/09 13:08:22;;;;;;;9.93;5.00;;;12.60;34.10;;;;;;5080562;28;20758;-77
2022/02/09 13:10:48;;;;;;;12.88;4.90;;;12.50;34.10;;;;;;5089988;28;20811;-76
2022/02/09 13:13:26;;;;;;;11.57;5.22;;;12.50;34.30;;;;;;5081075;28;20761;-77
2022/02/09 13:16:07;;;;;;;11.10;5.20;;;12.50;34.40;;;;;;5073247;28;20405;-75
2022/02/09 14:17:17;;;;;;;10.50;4.35;;;12.40;34.50;;;;;;5080485;28;20385;-77
2022/02/09 14:48:03;;;;;;;12.32;4.22;;;12.80;32.40;;;;;;5099745;28;20381;-77
2022/02/09 14:51:15;;;;;;;8.30;3.87;;;12.70;32.80;;;;;;5103235;28;20530;-77
2022/02/09 14:53:29;;;;;;;6.00;3.10;;;12.70;32.50;;;;;;5101032;28;20927;-76
2022/02/09 14:58:25;;;;;;;10.70;3.70;;;12.50;33.00;;;;;;5079220;28;20380;-77
2022/02/09 15:03:36;;;;;;;4.90;3.10;;;12.40;33.60;;;;;;5085454;28;20458;-77
2022/02/09 15:14:05;;;;;;;5.68;3.20;;;12.40;34.10;;;;;;5079252;28;20374;-76
2022/02/09 15:24:45;;;;;;;5.88;2.80;;;12.50;34.00;;;;;;5076544;28;20421;-77
2022/02/09 15:27:17;;;;;;;6.93;3.10;;;12.60;33.30;;;;;;5086319;28;20478;-77
2022/02/09 15:29:43;;;;;;;12.48;4.15;;;12.60;33.10;;;;;;5093145;28;20421;-77
2022/02/09 15:34:49;;;;;;;5.28;3.20;;;12.40;33.90;;;;;;5087445;28;20403;-77
2022/02/09 15:37:26;;;;;;;4.90;2.83;;;12.50;33.60;;;;;;5086017;28;20738;-77
2022/02/09 15:39:55;;;;;;;7.43;3.00;;;12.80;32.70;;;;;;5091002;28;20393;-77
2022/02/09 15:42:47;;;;;;;8.30;3.70;;;13.30;31.30;;;;;;5094472;28;20403;-77
2022/02/09 16:09:32;;;;;;;14.23;4.47;;;11.90;34.80;;;;;;5092221;28;20825;-76
2022/02/09 16:22:36;;;;;;;16.60;6.60;;;11.00;39.80;;;;;;5089817;28;20398;-76
2022/02/09 16:46:39;;;;;;;13.30;5.82;;;10.10;47.00;;;;;;5086499;28;20425;-76
2022/02/09 16:49:10;;;;;;;13.70;5.22;;;9.90;47.80;;;;;;5086356;28;20432;-77
2022/02/09 16:51:51;;;;;;;14.48;5.90;;;10.00;47.60;;;;;;5087429;28;20394;-77
2022/02/09 16:54:47;;;;;;;13.43;6.00;;;9.90;48.40;;;;;;5084354;28;20490;-77
2022/02/09 17:08:25;;;;;;;12.43;6.80;;;9.70;49.80;;;;;;5087695;28;20384;-77
2022/02/09 17:11:08;;;;;;;13.82;7.13;;;9.70;51.60;;;;;;5091233;28;20953;-78
2022/02/09 17:19:09;;;;;;;13.50;7.70;;;10.10;49.60;;;;;;5078073;28;20375;-77
2022/02/09 17:21:35;;;;;;;16.95;8.18;;;10.10;48.70;;;;;;5083113;28;20388;-76
2022/02/09 17:24:02;;;;;;;11.23;7.30;;;10.20;48.80;;;;;;5097473;28;20386;-77
2022/02/09 17:26:29;;;;;;;14.75;8.18;;;10.20;47.90;;;;;;5102280;28;20425;-77
2022/02/09 17:29:05;;;;;;;15.55;7.80;;;10.30;47.00;;;;;;5086837;28;20403;-80
2022/02/09 17:31:42;;;;;;;13.55;7.80;;;10.30;47.80;;;;;;5095800;28;20405;-79
2022/02/09 17:37:00;;;;;;;19.00;8.50;;;10.50;46.60;;;;;;5085779;28;20783;-78
2022/02/09 17:56:09;;;;;;;18.93;8.70;;;10.60;46.00;;;;;;5088827;28;20440;-77
2022/02/09 17:58:54;;;;;;;16.42;7.45;;;10.90;45.40;;;;;;5081459;28;20407;-78
2022/02/09 18:01:20;;;;;;;14.43;6.87;;;11.20;42.20;;;;;;5086830;28;20475;-79
2022/02/09 18:03:48;;;;;;;16.35;6.88;;;11.10;42.50;;;;;;5089909;28;20462;-78
2022/02/09 18:06:21;;;;;;;18.83;7.75;;;10.80;42.70;;;;;;5099472;28;20392;-78
2022/02/09 18:09:11;;;;;;;26.52;13.20;;;10.40;45.10;;;;;;5094840;28;20418;-76
2022/02/09 18:30:43;;;;;;;23.60;9.45;;;8.70;61.30;;;;;;5089506;28;20391;-76
2022/02/09 18:33:11;;;;;;;21.58;11.15;;;8.80;61.80;;;;;;5087296;28;20405;-78
2022/02/09 18:46:29;;;;;;;20.13;11.00;;;8.40;66.80;;;;;;5090003;28;20390;-79
2022/02/09 18:57:02;;;;;;;21.13;10.98;;;8.50;65.80;;;;;;5103192;28;20494;-77
2022/02/09 19:02:09;;;;;;;28.83;11.80;;;8.50;66.70;;;;;;5095472;28;21002;-75
2022/02/09 19:04:42;;;;;;;23.15;12.75;;;8.50;66.70;;;;;;5090630;28;20478;-77
2022/02/09 19:15:44;;;;;;;31.08;14.35;;;8.60;67.00;;;;;;5097226;28;20444;-79
2022/02/09 19:26:12;;;;;;;29.15;13.40;;;8.70;65.60;;;;;;5091477;28;20404;-79
2022/02/09 19:31:47;;;;;;;15.90;8.50;;;8.80;63.10;;;;;;5097720;28;20803;-78
2022/02/09 19:45:46;;;;;;;19.58;9.00;;;8.70;63.10;;;;;;5095805;28;20432;-80
2022/02/09 19:48:03;;;;;;;16.55;8.95;;;8.60;62.80;;;;;;5094828;28;20413;-79
2022/02/09 19:55:40;;;;;;;25.80;9.82;;;8.80;60.10;;;;;;5093337;28;20402;-78
2022/02/09 19:58:07;;;;;;;16.65;8.90;;;8.70;60.60;;;;;;5092480;28;20837;-78
2022/02/09 20:00:36;;;;;;;20.42;9.48;;;8.70;60.60;;;;;;5100149;28;20386;-79
2022/02/09 20:03:02;;;;;;;19.38;8.90;;;8.80;60.10;;;;;;5087987;28;20857;-78
2022/02/09 20:05:28;;;;;;;17.90;9.10;;;8.80;59.70;;;;;;5093119;28;20406;-77
2022/02/09 20:07:55;;;;;;;19.00;10.00;;;8.90;59.60;;;;;;5100869;28;20432;-79
2022/02/09 20:10:22;;;;;;;17.20;9.20;;;8.80;59.50;;;;;;5084671;28;20395;-78
2022/02/09 20:12:48;;;;;;;19.40;9.55;;;8.90;59.40;;;;;;5096983;28;20429;-76
2022/02/09 20:15:17;;;;;;;19.58;10.27;;;9.00;58.50;;;;;;5096497;28;20398;-77
2022/02/09 20:17:43;;;;;;;17.58;9.82;;;8.90;58.40;;;;;;5103039;28;20408;-75
2022/02/09 20:20:13;;;;;;;16.52;9.88;;;8.90;59.30;;;;;;5096328;28;20416;-77
2022/02/09 20:22:38;;;;;;;22.80;10.30;;;8.80;59.70;;;;;;5094455;28;20504;-77
2022/02/09 20:25:05;;;;;;;18.08;9.40;;;8.90;59.30;;;;;;5083610;28;20409;-78
2022/02/09 20:27:34;;;;;;;15.65;9.77;;;8.80;59.70;;;;;;5085722;28;20794;-78
2022/02/09 20:30:02;;;;;;;23.07;10.40;;;8.80;59.90;;;;;;5093515;28;20483;-75
2022/02/09 20:32:33;;;;;;;20.20;10.18;;;8.80;60.20;;;;;;5080256;28;20406;-78
2022/02/09 20:35:02;;;;;;;20.98;10.68;;;8.70;60.90;;;;;;5085738;28;20402;-78
2022/02/09 20:37:30;;;;;;;17.75;10.00;;;8.70;61.20;;;;;;5084823;28;20532;-80
2022/02/09 20:39:58;;;;;;;21.00;11.70;;;8.70;61.50;;;;;;5090678;28;20394;-77
2022/02/09 20:42:25;;;;;;;23.38;11.70;;;8.70;61.70;;;;;;5093578;28;20403;-77
2022/02/09 20:44:59;;;;;;;22.17;10.37;;;8.60;62.30;;;;;;5096655;28;20394;-78
2022/02/09 20:47:24;;;;;;;22.23;10.43;;;8.50;62.80;;;;;;5079776;28;20422;-78
2022/02/09 20:49:50;;;;;;;24.02;10.70;;;8.40;64.00;;;;;;5090951;28;20395;-77
2022/02/09 20:52:16;;;;;;;19.73;11.07;;;8.40;64.90;;;;;;5084309;28;20403;-75
2022/02/09 20:54:43;;;;;;;22.08;10.10;;;8.40;64.90;;;;;;5088059;28;20441;-77
2022/02/09 20:57:09;;;;;;;17.65;9.73;;;8.50;64.00;;;;;;5086906;28;20433;-77
2022/02/09 20:59:41;;;;;;;23.65;11.77;;;8.50;63.40;;;;;;5080097;28;20407;-78
2022/02/09 21:02:30;;;;;;;21.33;10.50;;;8.60;62.80;;;;;;5089766;28;20402;-78
2022/02/09 21:04:56;;;;;;;21.92;11.23;;;8.60;62.50;;;;;;5089779;28;20408;-76
2022/02/09 21:07:34;;;;;;;22.65;10.57;;;8.70;61.40;;;;;;5087043;28;20537;-77
2022/02/09 21:10:25;;;;;;;22.30;10.85;;;8.70;61.20;;;;;;5090578;28;20523;-75
2022/02/09 21:12:56;;;;;;;20.85;10.20;;;8.70;61.30;;;;;;5089209;28;20452;-76
2022/02/09 21:16:33;;;;;;;19.87;10.10;;;8.70;60.70;;;;;;5086135;28;20453;-78
2022/02/09 21:18:57;;;;;;;26.90;10.77;;;8.70;61.00;;;;;;5064439;28;20740;-78
2022/02/09 21:21:42;;;;;;;21.73;10.52;;;8.50;61.90;;;;;;5087792;28;20402;-79
2022/02/09 21:27:16;;;;;;;21.58;10.40;;;8.50;63.30;;;;;;5088521;28;20423;-78
2022/02/09 21:44:20;;;;;;;19.60;10.32;;;8.40;63.50;;;;;;5088761;28;20444;-77
2022/02/09 21:46:26;;;;;;;23.95;11.48;;;8.30;64.90;;;;;;5078515;28;20442;-79
2022/02/09 21:56:40;;;;;;;19.97;10.20;;;8.50;64.20;;;;;;5084618;28;20406;-76
2022/02/09 22:24:12;;;;;;;24.63;11.43;;;8.70;63.50;;;;;;5090187;28;20520;-78
2022/02/09 22:29:03;;;;;;;21.20;11.38;;;8.80;61.90;;;;;;5097862;28;20439;-77
2022/02/09 22:31:41;;;;;;;24.10;11.77;;;8.80;61.70;;;;;;5087282;28;20418;-77
2022/02/09 22:34:45;;;;;;;23.02;10.63;;;8.70;62.20;;;;;;5095562;28;20413;-78
2022/02/09 22:55:34;;;;;;;32.00;13.07;;;8.70;63.40;;;;;;5094402;28;20466;-77
2022/02/09 22:58:04;;;;;;;25.95;11.70;;;8.70;62.80;;;;;;5083542;28;20391;-78
2022/02/09 23:03:18;;;;;;;23.15;12.00;;;8.70;62.70;;;;;;5055589;28;20569;-79
2022/02/09 23:06:04;;;;;;;27.45;12.13;;;8.80;61.70;;;;;;5044230;28;20420;-76
2022/02/09 23:28:09;;;;;;;24.40;12.55;;;8.50;66.30;;;;;;5049629;28;20764;-77
